Eldorado, TX

6:42 AM CDT on August 30, 2015 (GMT -0500)
6th ST., Christoval, TX | | Change Station
CLOSE
Current Station
Personal Weather Station
Location: Christoval, TX
Elevation: 2129 ft
Nearby Weather Stations

Elev 2129 ft 31.20 °N, 100.49 °W | Updated 23 seconds ago

Overcast
Overcast
73.6 °F
Feels Like 76 °F
N
0.0
Wind Variable Wind from ESE
Gusts 0.0 mph

Today
High -- | Low -- °F
--% Chance of Precip.
Yesterday
High -- | Low -- °F
Precip. -- in
7:17 AM 8:07 PM
Full, 99% visible
Pressure 30.11 in
Visibility 10.0 miles
Clouds Clear
Heat Index 76 °F
Dew Point 60 °F
Humidity 62%
Rainfall 0.00 in
Snow Depth Not available.
UV 0.0 out of 12
Pollen 8.10 out of 12
Air Quality Not available.
Flu Activity Not available.
METAR KSOA 301135Z AUTO 16006KT 10SM CLR 24/15 A3011 RMK AO2
Pressure 30.11 in
Visibility 10.0 miles
Clouds Clear
Heat Index 76 °F
Dew Point 60 °F
Humidity 62%
Rainfall 0.00 in
Snow Depth Not available.
UV 0.0 out of 12
Pollen 8.10 out of 12
Air Quality Not available.
Flu Activity Not available.
METAR KSOA 301135Z AUTO 16006KT 10SM CLR 24/15 A3011 RMK AO2
Nowcast | as of 5:10 am CDT on August 30, 2015

Scattered showers will continue across parts of west central Texas through 700 am CDT. Rainfall amounts will remain light with most locations only receiving a few hundredths of an inch.

×

10-Day Weather Forecast

×

Almanac

Astronomy

Aug. 30, 2015 Rise Set
Actual Time
Civil Twilight
Nautical Twilight
Astronomical Twilight
Moon
Length of Visible Light
Length of Day
Tomorrow will be .
, % of the Moon is Illuminated

Today's Extremes

State Highs State Lows

Community

WunderPhotos

Upload Photos

1,850,930 photos uploaded!

WunderBlogs® & News

Nearby

Air Quality

  Air Quality AQ Index Pollutant
Not available.

Snow Depth

Station Depth Elevation

Earthquake Activity

City Distance Mag. Time & Date
Minimum magnitude displayed is 2.5.

Coastal Water Temperatures

Place Temperature

Stations

Nearby Weather Stations

Station Location Temp. Windchill Dew Point Humidity Wind Precip. Elev Updated Type